createdAt,value
2022-08-03T00:02:52.695Z,9.50
2022-08-03T00:07:59.203Z,10.60
2022-08-03T00:13:06.093Z,6.40
2022-08-03T00:18:12.118Z,8.20
2022-08-03T00:23:17.996Z,11.40
2022-08-03T00:28:24.097Z,14.40
2022-08-03T00:33:58.333Z,10.80
2022-08-03T00:39:00.330Z,11.00
2022-08-03T00:44:06.756Z,10.10
2022-08-03T00:49:13.069Z,10.00
2022-08-03T00:54:20.194Z,13.70
2022-08-03T00:59:26.116Z,10.30
2022-08-03T01:04:32.046Z,9.50
2022-08-03T01:09:46.600Z,11.60
2022-08-03T01:14:58.594Z,8.60
2022-08-03T01:20:08.057Z,8.10
2022-08-03T01:25:24.795Z,15.60
2022-08-03T01:30:33.714Z,8.20
2022-08-03T01:35:47.118Z,7.80
2022-08-03T01:40:56.269Z,8.70
2022-08-03T01:46:03.215Z,9.20
2022-08-03T01:51:10.985Z,9.60
2022-08-03T01:56:19.666Z,10.40
2022-08-03T02:01:27.390Z,10.60
2022-08-03T02:07:01.711Z,11.30
2022-08-03T02:12:11.696Z,9.80
2022-08-03T02:17:39.335Z,11.60
2022-08-03T02:22:46.572Z,10.20
2022-08-03T02:27:55.578Z,8.00
2022-08-03T02:33:03.126Z,11.80
2022-08-03T02:38:11.728Z,11.00
2022-08-03T02:43:22.018Z,10.40
2022-08-03T02:48:32.771Z,8.80
2022-08-03T02:53:39.425Z,8.80
2022-08-03T02:58:47.656Z,13.30
2022-08-03T03:03:54.937Z,11.30
2022-08-03T03:09:02.716Z,11.60
2022-08-03T03:14:10.206Z,8.30
2022-08-03T03:19:17.744Z,9.10
2022-08-03T03:24:24.178Z,10.40
2022-08-03T03:29:30.500Z,14.80
2022-08-03T03:34:45.943Z,14.00
2022-08-03T03:39:53.068Z,19.20
2022-08-03T03:44:59.475Z,13.90
2022-08-03T03:50:06.945Z,15.90
2022-08-03T03:55:18.028Z,21.60
2022-08-03T04:00:25.011Z,33.30
2022-08-03T04:05:50.054Z,81.20
2022-08-03T04:11:07.470Z,53.40
2022-08-03T04:16:15.820Z,59.10
2022-08-03T04:21:24.206Z,56.80
2022-08-03T04:26:34.427Z,59.30
2022-08-03T04:31:42.103Z,38.00
2022-08-03T04:36:52.820Z,26.10
2022-08-03T04:42:08.407Z,23.70
2022-08-03T04:47:15.810Z,20.00
2022-08-03T04:52:22.053Z,21.30
2022-08-03T04:57:28.208Z,21.00
2022-08-03T05:02:35.074Z,17.60
2022-08-03T05:07:41.010Z,21.90
2022-08-03T05:12:51.670Z,16.50
2022-08-03T05:17:57.639Z,18.80
2022-08-03T05:23:04.113Z,9.90
2022-08-03T05:28:09.878Z,10.20
2022-08-03T05:33:16.133Z,14.90
2022-08-03T05:38:28.029Z,12.60
2022-08-03T05:43:39.575Z,12.00
2022-08-03T05:48:45.566Z,10.80
2022-08-03T05:53:52.321Z,13.80
2022-08-03T05:59:07.243Z,14.30
2022-08-03T06:04:22.727Z,13.90
2022-08-03T06:10:34.002Z,14.50
2022-08-03T06:14:56.040Z,18.10
2022-08-03T06:20:02.483Z,13.40
2022-08-03T06:25:12.794Z,12.20
2022-08-03T06:30:21.238Z,16.40
2022-08-03T06:35:28.152Z,16.30
2022-08-03T06:40:40.047Z,15.90
2022-08-03T06:45:47.691Z,13.40
2022-08-03T06:50:53.598Z,15.10
2022-08-03T06:55:59.635Z,18.80
2022-08-03T07:01:05.723Z,15.60
2022-08-03T07:06:11.816Z,11.40
2022-08-03T07:11:17.754Z,15.70
2022-08-03T07:16:23.717Z,18.10
2022-08-03T07:21:29.659Z,18.90
2022-08-03T07:26:35.499Z,18.60
2022-08-03T07:31:42.236Z,21.30
2022-08-03T07:36:48.060Z,16.30
2022-08-03T07:41:53.975Z,18.40
2022-08-03T07:47:03.227Z,15.50
2022-08-03T07:52:28.598Z,20.30
2022-08-03T07:57:35.653Z,24.00
2022-08-03T08:02:41.888Z,14.60
2022-08-03T08:07:51.072Z,16.00
2022-08-03T08:12:57.931Z,21.00
2022-08-03T08:18:04.116Z,16.50
2022-08-03T08:23:37.644Z,16.10
2022-08-03T08:28:36.368Z,13.60
2022-08-03T08:34:03.087Z,7.00
2022-08-03T08:39:08.293Z,11.40
2022-08-03T08:44:14.469Z,8.40
2022-08-03T08:49:28.080Z,8.90
2022-08-03T08:54:35.140Z,7.30
2022-08-03T08:59:47.754Z,6.50
2022-08-03T09:04:55.634Z,8.90
2022-08-03T09:10:11.789Z,7.90
2022-08-03T09:15:22.461Z,3.20
2022-08-03T09:20:30.821Z,5.00
2022-08-03T09:25:39.057Z,5.80
2022-08-03T09:30:58.192Z,2.40
2022-08-03T09:36:04.590Z,5.40
2022-08-03T09:41:19.913Z,3.70
2022-08-03T09:46:25.826Z,6.20
2022-08-03T09:51:33.283Z,10.20
2022-08-03T09:56:58.772Z,7.20
2022-08-03T10:02:04.957Z,7.40
2022-08-03T10:07:12.194Z,8.20
2022-08-03T10:12:18.263Z,10.00
2022-08-03T10:17:24.603Z,5.80
2022-08-03T10:22:34.047Z,6.60
2022-08-03T10:27:41.514Z,8.60
2022-08-03T10:32:52.558Z,6.80
2022-08-03T10:38:02.075Z,9.40
2022-08-03T10:43:13.279Z,7.40
2022-08-03T10:48:20.794Z,7.20
2022-08-03T10:53:40.451Z,7.20
2022-08-03T10:58:57.393Z,7.20
2022-08-03T11:04:21.633Z,5.50
2022-08-03T11:09:40.782Z,5.80
2022-08-03T11:14:50.151Z,12.80
2022-08-03T11:19:56.822Z,8.30
2022-08-03T11:25:05.262Z,4.00
2022-08-03T11:30:27.500Z,5.00
2022-08-03T11:35:43.827Z,4.40
2022-08-03T11:40:51.450Z,3.70
2022-08-03T11:46:02.339Z,4.30
2022-08-03T11:51:20.259Z,3.10
2022-08-03T11:56:26.732Z,5.50
2022-08-03T12:01:32.980Z,3.30
2022-08-03T12:06:55.451Z,4.40
2022-08-03T12:12:01.639Z,4.10
2022-08-03T12:17:07.495Z,5.70
2022-08-03T12:22:16.829Z,5.20
2022-08-03T12:27:29.757Z,7.80
2022-08-03T12:32:35.876Z,5.90
2022-08-03T12:37:48.323Z,4.20
2022-08-03T12:42:54.505Z,3.20
2022-08-03T12:48:02.325Z,3.40
2022-08-03T12:53:10.606Z,5.30
2022-08-03T12:58:33.799Z,6.40
2022-08-03T13:03:49.588Z,3.50
2022-08-03T13:09:07.801Z,4.00
2022-08-03T13:14:19.787Z,2.00
2022-08-03T13:19:26.266Z,3.50
2022-08-03T13:24:33.454Z,4.40
2022-08-03T13:29:39.935Z,7.30
2022-08-03T13:34:45.971Z,4.00
2022-08-03T13:39:58.025Z,6.20
2022-08-03T13:45:08.865Z,7.70
2022-08-03T13:50:15.347Z,5.70
2022-08-03T13:55:21.308Z,4.20
2022-08-03T14:00:29.483Z,5.70
2022-08-03T14:05:37.141Z,7.40
2022-08-03T14:10:44.921Z,9.50
2022-08-03T14:15:51.980Z,5.60
2022-08-03T14:21:03.411Z,5.00
2022-08-03T14:26:12.077Z,8.90
2022-08-03T14:32:09.519Z,4.90
2022-08-03T14:36:44.309Z,2.80
2022-08-03T14:41:50.170Z,7.10
2022-08-03T14:46:56.034Z,5.50
2022-08-03T14:52:02.689Z,3.90
2022-08-03T14:57:08.555Z,5.20
2022-08-03T15:02:23.339Z,3.80
2022-08-03T15:07:30.033Z,6.90
2022-08-03T15:12:36.174Z,3.60
2022-08-03T15:17:42.862Z,6.40
2022-08-03T15:22:48.851Z,6.60
2022-08-03T15:28:03.733Z,4.80
2022-08-03T15:33:10.934Z,4.50
2022-08-03T15:38:17.673Z,3.40
2022-08-03T15:43:23.833Z,6.00
2022-08-03T15:48:29.867Z,4.70
2022-08-03T15:53:36.528Z,5.50
2022-08-03T15:59:09.241Z,6.80
2022-08-03T16:04:08.408Z,5.80
2022-08-03T16:09:23.102Z,5.30
2022-08-03T16:14:51.277Z,7.40
2022-08-03T16:19:58.495Z,8.00
2022-08-03T16:25:04.830Z,6.70
2022-08-03T16:30:20.064Z,3.60
2022-08-03T16:35:26.090Z,5.20
2022-08-03T16:40:32.783Z,7.10
2022-08-03T16:45:38.921Z,6.00
2022-08-03T16:50:45.251Z,5.90
2022-08-03T16:55:54.334Z,6.20
2022-08-03T17:01:00.408Z,7.10
2022-08-03T17:06:17.515Z,6.80
2022-08-03T17:11:28.075Z,6.10
2022-08-03T17:16:36.057Z,5.30
2022-08-03T17:21:51.539Z,8.00
2022-08-03T17:27:00.680Z,7.30
2022-08-03T17:32:10.656Z,7.20
2022-08-03T17:37:49.840Z,7.50
2022-08-03T17:42:50.532Z,8.40
2022-08-03T17:47:57.160Z,6.50
2022-08-03T17:53:15.681Z,12.60
2022-08-03T17:58:43.899Z,18.50
2022-08-03T18:03:58.657Z,10.50
2022-08-03T18:10:05.824Z,16.10
2022-08-03T18:14:43.286Z,13.60
2022-08-03T18:20:11.684Z,12.00
2022-08-03T18:25:38.295Z,12.10
2022-08-03T18:30:53.451Z,13.70
2022-08-03T18:36:04.049Z,10.70
2022-08-03T18:41:15.146Z,11.90
2022-08-03T18:46:34.265Z,13.10
2022-08-03T18:51:46.994Z,9.60
2022-08-03T18:56:55.953Z,14.50
2022-08-03T19:02:09.130Z,12.10
2022-08-03T19:07:24.729Z,13.20
2022-08-03T19:12:39.971Z,13.60
2022-08-03T19:17:53.195Z,14.70
2022-08-03T19:23:00.988Z,15.00
2022-08-03T19:28:08.874Z,18.30
2022-08-03T19:33:15.594Z,22.60
2022-08-03T19:38:29.341Z,21.00
2022-08-03T19:43:52.809Z,16.20
2022-08-03T19:49:04.625Z,18.70
2022-08-03T19:54:29.339Z,14.30
2022-08-03T19:59:50.392Z,14.30
2022-08-03T20:04:57.797Z,15.20
2022-08-03T20:10:09.233Z,16.80
2022-08-03T20:15:18.166Z,14.10
2022-08-03T20:20:32.223Z,14.40
2022-08-03T20:25:57.198Z,13.40
2022-08-03T20:31:05.422Z,14.40
2022-08-03T20:36:13.047Z,13.90
2022-08-03T20:41:21.890Z,13.10
2022-08-03T20:46:32.716Z,16.60
2022-08-03T20:51:49.646Z,11.90
2022-08-03T20:57:00.354Z,14.70
2022-08-03T21:02:06.608Z,10.60
2022-08-03T21:07:19.206Z,14.20
2022-08-03T21:12:35.683Z,10.90
2022-08-03T21:17:47.477Z,12.60
2022-08-03T21:22:56.202Z,11.90
2022-08-03T21:28:05.911Z,10.90
2022-08-03T21:33:12.177Z,13.10
2022-08-03T21:38:29.924Z,10.70
2022-08-03T21:43:36.552Z,11.10
2022-08-03T21:48:44.822Z,9.20
2022-08-03T21:54:00.379Z,12.80
2022-08-03T21:59:17.367Z,9.70
2022-08-03T22:04:50.831Z,11.20
2022-08-03T22:09:52.239Z,11.70
2022-08-03T22:15:01.956Z,14.60
2022-08-03T22:20:11.102Z,11.50
2022-08-03T22:25:18.196Z,14.50
2022-08-03T22:30:24.139Z,10.80
2022-08-03T22:35:31.565Z,12.40
2022-08-03T22:40:39.102Z,12.30
2022-08-03T22:46:09.831Z,10.00
2022-08-03T22:51:15.366Z,10.50
2022-08-03T22:56:22.126Z,12.10
2022-08-03T23:01:32.611Z,9.50
2022-08-03T23:06:41.357Z,10.00
2022-08-03T23:11:48.382Z,8.00
2022-08-03T23:16:56.006Z,10.20
2022-08-03T23:22:04.084Z,9.20
2022-08-03T23:27:11.793Z,9.70
2022-08-03T23:32:21.423Z,8.10
2022-08-03T23:37:28.246Z,9.90
2022-08-03T23:42:35.034Z,10.40
2022-08-03T23:47:46.968Z,7.40
2022-08-03T23:53:08.300Z,7.50
2022-08-03T23:58:25.029Z,9.20
